sensor_id;sensor_type;location;lat;lon;timestamp;temperature;humidity
24049;DHT22;12250;50.956;4.746;2022-07-06T00:01:20;11.50;99.90
24049;DHT22;12250;50.956;4.746;2022-07-06T00:03:45;11.50;99.90
24049;DHT22;12250;50.956;4.746;2022-07-06T00:06:11;11.40;99.90
24049;DHT22;12250;50.956;4.746;2022-07-06T00:08:38;11.40;99.90
24049;DHT22;12250;50.956;4.746;2022-07-06T00:11:04;11.40;99.90
24049;DHT22;12250;50.956;4.746;2022-07-06T00:13:30;11.40;99.90
24049;DHT22;12250;50.956;4.746;2022-07-06T00:15:55;11.60;99.90
24049;DHT22;12250;50.956;4.746;2022-07-06T00:18:21;11.60;99.90
24049;DHT22;12250;50.956;4.746;2022-07-06T00:20:47;11.60;99.90
24049;DHT22;12250;50.956;4.746;2022-07-06T00:23:14;11.60;99.90
24049;DHT22;12250;50.956;4.746;2022-07-06T00:25:39;11.50;99.90
24049;DHT22;12250;50.956;4.746;2022-07-06T00:28:05;11.50;99.90
24049;DHT22;12250;50.956;4.746;2022-07-06T00:30:31;11.40;99.90
24049;DHT22;12250;50.956;4.746;2022-07-06T00:32:57;11.40;99.90
24049;DHT22;12250;50.956;4.746;2022-07-06T00:35:26;11.50;99.90
24049;DHT22;12250;50.956;4.746;2022-07-06T00:37:52;11.40;99.90
24049;DHT22;12250;50.956;4.746;2022-07-06T00:40:21;11.40;99.90
24049;DHT22;12250;50.956;4.746;2022-07-06T00:42:48;11.40;99.90
24049;DHT22;12250;50.956;4.746;2022-07-06T00:45:15;11.30;99.90
24049;DHT22;12250;50.956;4.746;2022-07-06T00:47:41;11.30;99.90
24049;DHT22;12250;50.956;4.746;2022-07-06T00:50:09;11.30;99.90
24049;DHT22;12250;50.956;4.746;2022-07-06T00:52:44;11.20;99.90
24049;DHT22;12250;50.956;4.746;2022-07-06T00:55:11;11.10;99.90
24049;DHT22;12250;50.956;4.746;2022-07-06T00:57:37;11.10;99.90
24049;DHT22;12250;50.956;4.746;2022-07-06T01:00:05;11.10;99.90
24049;DHT22;12250;50.956;4.746;2022-07-06T01:02:32;11.10;99.90
24049;DHT22;12250;50.956;4.746;2022-07-06T01:04:57;11.00;99.90
24049;DHT22;12250;50.956;4.746;2022-07-06T01:07:24;11.00;99.90
24049;DHT22;12250;50.956;4.746;2022-07-06T01:09:50;11.00;99.90
24049;DHT22;12250;50.956;4.746;2022-07-06T01:12:16;10.90;99.90
24049;DHT22;12250;50.956;4.746;2022-07-06T01:14:42;10.90;99.90
24049;DHT22;12250;50.956;4.746;2022-07-06T01:17:08;10.90;99.90
24049;DHT22;12250;50.956;4.746;2022-07-06T01:19:34;10.80;99.90
24049;DHT22;12250;50.956;4.746;2022-07-06T01:21:59;10.80;99.90
24049;DHT22;12250;50.956;4.746;2022-07-06T01:24:25;10.80;99.90
24049;DHT22;12250;50.956;4.746;2022-07-06T01:26:52;10.70;99.90
24049;DHT22;12250;50.956;4.746;2022-07-06T01:29:18;10.70;99.90
24049;DHT22;12250;50.956;4.746;2022-07-06T01:31:48;10.60;99.90
24049;DHT22;12250;50.956;4.746;2022-07-06T01:34:16;10.60;99.90
24049;DHT22;12250;50.956;4.746;2022-07-06T01:36:42;10.70;99.90
24049;DHT22;12250;50.956;4.746;2022-07-06T01:39:09;10.60;99.90
24049;DHT22;12250;50.956;4.746;2022-07-06T01:41:35;10.60;99.90
24049;DHT22;12250;50.956;4.746;2022-07-06T01:44:02;10.60;99.90
24049;DHT22;12250;50.956;4.746;2022-07-06T01:46:27;10.60;99.90
24049;DHT22;12250;50.956;4.746;2022-07-06T01:48:53;10.60;99.90
24049;DHT22;12250;50.956;4.746;2022-07-06T01:51:19;10.50;99.90
24049;DHT22;12250;50.956;4.746;2022-07-06T01:53:45;10.50;99.90
24049;DHT22;12250;50.956;4.746;2022-07-06T01:56:11;10.50;99.90
24049;DHT22;12250;50.956;4.746;2022-07-06T01:58:38;10.50;99.90
24049;DHT22;12250;50.956;4.746;2022-07-06T02:01:08;10.50;99.90
24049;DHT22;12250;50.956;4.746;2022-07-06T02:03:34;10.50;99.90
24049;DHT22;12250;50.956;4.746;2022-07-06T02:06:00;10.50;99.90
24049;DHT22;12250;50.956;4.746;2022-07-06T02:08:26;10.50;99.90
24049;DHT22;12250;50.956;4.746;2022-07-06T02:10:51;10.40;99.90
24049;DHT22;12250;50.956;4.746;2022-07-06T02:13:17;10.40;99.90
24049;DHT22;12250;50.956;4.746;2022-07-06T02:15:43;10.40;99.90
24049;DHT22;12250;50.956;4.746;2022-07-06T02:18:08;10.30;99.90
24049;DHT22;12250;50.956;4.746;2022-07-06T02:20:34;10.30;99.90
24049;DHT22;12250;50.956;4.746;2022-07-06T02:23:00;10.30;99.90
24049;DHT22;12250;50.956;4.746;2022-07-06T02:25:27;10.10;99.90
24049;DHT22;12250;50.956;4.746;2022-07-06T02:27:52;10.10;99.90
24049;DHT22;12250;50.956;4.746;2022-07-06T02:30:18;10.10;99.90
24049;DHT22;12250;50.956;4.746;2022-07-06T02:32:44;10.00;99.90
24049;DHT22;12250;50.956;4.746;2022-07-06T02:35:10;10.10;99.90
24049;DHT22;12250;50.956;4.746;2022-07-06T02:37:36;10.10;99.90
24049;DHT22;12250;50.956;4.746;2022-07-06T02:40:02;10.10;99.90
24049;DHT22;12250;50.956;4.746;2022-07-06T02:42:28;10.10;99.90
24049;DHT22;12250;50.956;4.746;2022-07-06T02:44:54;10.20;99.90
24049;DHT22;12250;50.956;4.746;2022-07-06T02:47:20;10.30;99.90
24049;DHT22;12250;50.956;4.746;2022-07-06T02:49:45;10.30;99.90
24049;DHT22;12250;50.956;4.746;2022-07-06T02:52:11;10.40;99.90
24049;DHT22;12250;50.956;4.746;2022-07-06T02:54:36;10.40;99.90
24049;DHT22;12250;50.956;4.746;2022-07-06T02:57:02;10.40;99.90
24049;DHT22;12250;50.956;4.746;2022-07-06T02:59:28;10.40;99.90
24049;DHT22;12250;50.956;4.746;2022-07-06T03:01:54;10.40;99.90
24049;DHT22;12250;50.956;4.746;2022-07-06T03:04:19;10.40;99.90
24049;DHT22;12250;50.956;4.746;2022-07-06T03:06:45;10.40;99.90
24049;DHT22;12250;50.956;4.746;2022-07-06T03:09:11;10.40;99.90
24049;DHT22;12250;50.956;4.746;2022-07-06T03:11:37;10.50;99.90
24049;DHT22;12250;50.956;4.746;2022-07-06T03:14:03;10.50;99.90
24049;DHT22;12250;50.956;4.746;2022-07-06T03:16:29;10.50;99.90
24049;DHT22;12250;50.956;4.746;2022-07-06T03:18:55;10.50;99.90
24049;DHT22;12250;50.956;4.746;2022-07-06T03:21:22;10.40;99.90
24049;DHT22;12250;50.956;4.746;2022-07-06T03:23:48;10.40;99.90
24049;DHT22;12250;50.956;4.746;2022-07-06T03:26:13;10.40;99.90
24049;DHT22;12250;50.956;4.746;2022-07-06T03:28:39;10.30;99.90
24049;DHT22;12250;50.956;4.746;2022-07-06T03:31:05;10.30;99.90
24049;DHT22;12250;50.956;4.746;2022-07-06T03:33:30;10.30;99.90
24049;DHT22;12250;50.956;4.746;2022-07-06T03:35:56;10.30;99.90
24049;DHT22;12250;50.956;4.746;2022-07-06T03:38:22;10.20;99.90
24049;DHT22;12250;50.956;4.746;2022-07-06T03:40:48;10.30;99.90
24049;DHT22;12250;50.956;4.746;2022-07-06T03:43:13;10.30;99.90
24049;DHT22;12250;50.956;4.746;2022-07-06T03:45:39;10.30;99.90
24049;DHT22;12250;50.956;4.746;2022-07-06T03:48:05;10.30;99.90
24049;DHT22;12250;50.956;4.746;2022-07-06T03:50:31;10.30;99.90
24049;DHT22;12250;50.956;4.746;2022-07-06T03:52:57;10.20;99.90
24049;DHT22;12250;50.956;4.746;2022-07-06T03:55:23;10.30;99.90
24049;DHT22;12250;50.956;4.746;2022-07-06T03:57:48;10.20;99.90
24049;DHT22;12250;50.956;4.746;2022-07-06T04:00:14;10.30;99.90
24049;DHT22;12250;50.956;4.746;2022-07-06T04:02:40;10.30;99.90
24049;DHT22;12250;50.956;4.746;2022-07-06T04:05:06;10.30;99.90
24049;DHT22;12250;50.956;4.746;2022-07-06T04:07:32;10.40;99.90
24049;DHT22;12250;50.956;4.746;2022-07-06T04:09:57;10.40;99.90
24049;DHT22;12250;50.956;4.746;2022-07-06T04:12:23;10.50;99.90
24049;DHT22;12250;50.956;4.746;2022-07-06T04:14:49;10.60;99.90
24049;DHT22;12250;50.956;4.746;2022-07-06T04:17:14;10.70;99.90
24049;DHT22;12250;50.956;4.746;2022-07-06T04:20:00;10.70;99.90
24049;DHT22;12250;50.956;4.746;2022-07-06T04:22:26;10.70;99.90
24049;DHT22;12250;50.956;4.746;2022-07-06T04:24:52;10.70;99.90
24049;DHT22;12250;50.956;4.746;2022-07-06T04:27:18;10.80;99.90
24049;DHT22;12250;50.956;4.746;2022-07-06T04:29:43;10.80;99.90
24049;DHT22;12250;50.956;4.746;2022-07-06T04:32:09;10.90;99.90
24049;DHT22;12250;50.956;4.746;2022-07-06T04:34:35;10.90;99.90
24049;DHT22;12250;50.956;4.746;2022-07-06T04:37:00;11.00;99.90
24049;DHT22;12250;50.956;4.746;2022-07-06T04:39:26;11.00;99.90
24049;DHT22;12250;50.956;4.746;2022-07-06T04:41:52;11.10;99.90
24049;DHT22;12250;50.956;4.746;2022-07-06T04:44:18;11.10;99.90
24049;DHT22;12250;50.956;4.746;2022-07-06T04:46:44;11.20;99.90
24049;DHT22;12250;50.956;4.746;2022-07-06T04:49:10;11.30;99.90
24049;DHT22;12250;50.956;4.746;2022-07-06T04:51:35;11.50;99.90
24049;DHT22;12250;50.956;4.746;2022-07-06T04:54:01;11.60;99.90
24049;DHT22;12250;50.956;4.746;2022-07-06T04:56:27;11.70;99.90
24049;DHT22;12250;50.956;4.746;2022-07-06T04:58:52;11.90;99.90
24049;DHT22;12250;50.956;4.746;2022-07-06T05:01:18;12.10;99.90
24049;DHT22;12250;50.956;4.746;2022-07-06T05:03:43;12.30;99.90
24049;DHT22;12250;50.956;4.746;2022-07-06T05:06:09;12.50;99.90
24049;DHT22;12250;50.956;4.746;2022-07-06T05:08:35;12.70;99.90
24049;DHT22;12250;50.956;4.746;2022-07-06T05:11:00;12.90;99.90
24049;DHT22;12250;50.956;4.746;2022-07-06T05:13:26;13.30;99.90
24049;DHT22;12250;50.956;4.746;2022-07-06T05:15:52;13.50;99.90
24049;DHT22;12250;50.956;4.746;2022-07-06T05:18:17;13.80;99.90
24049;DHT22;12250;50.956;4.746;2022-07-06T05:20:43;13.90;99.90
24049;DHT22;12250;50.956;4.746;2022-07-06T05:23:09;14.10;99.90
24049;DHT22;12250;50.956;4.746;2022-07-06T05:25:35;14.20;99.90
24049;DHT22;12250;50.956;4.746;2022-07-06T05:28:02;14.30;99.90
24049;DHT22;12250;50.956;4.746;2022-07-06T05:30:28;14.40;99.90
24049;DHT22;12250;50.956;4.746;2022-07-06T05:32:54;14.30;99.90
24049;DHT22;12250;50.956;4.746;2022-07-06T05:35:19;14.20;99.90
24049;DHT22;12250;50.956;4.746;2022-07-06T05:37:45;14.10;99.90
24049;DHT22;12250;50.956;4.746;2022-07-06T05:40:11;14.10;99.90
24049;DHT22;12250;50.956;4.746;2022-07-06T05:42:37;14.10;99.90
24049;DHT22;12250;50.956;4.746;2022-07-06T05:45:03;14.10;99.90
24049;DHT22;12250;50.956;4.746;2022-07-06T05:47:29;14.10;99.90
24049;DHT22;12250;50.956;4.746;2022-07-06T05:50:15;14.20;99.90
24049;DHT22;12250;50.956;4.746;2022-07-06T05:52:44;14.20;99.90
24049;DHT22;12250;50.956;4.746;2022-07-06T05:55:11;14.20;99.90
24049;DHT22;12250;50.956;4.746;2022-07-06T05:57:38;14.30;99.90
24049;DHT22;12250;50.956;4.746;2022-07-06T06:00:06;14.40;99.90
24049;DHT22;12250;50.956;4.746;2022-07-06T06:02:39;14.40;99.90
24049;DHT22;12250;50.956;4.746;2022-07-06T06:05:08;14.50;99.90
24049;DHT22;12250;50.956;4.746;2022-07-06T06:07:39;14.70;99.90
24049;DHT22;12250;50.956;4.746;2022-07-06T06:10:07;14.80;99.90
24049;DHT22;12250;50.956;4.746;2022-07-06T06:12:33;15.10;99.90
24049;DHT22;12250;50.956;4.746;2022-07-06T06:14:59;15.40;99.90
24049;DHT22;12250;50.956;4.746;2022-07-06T06:17:24;15.80;99.90
24049;DHT22;12250;50.956;4.746;2022-07-06T06:19:50;16.00;99.90
24049;DHT22;12250;50.956;4.746;2022-07-06T06:22:16;16.30;99.90
24049;DHT22;12250;50.956;4.746;2022-07-06T06:24:41;16.50;99.90
24049;DHT22;12250;50.956;4.746;2022-07-06T06:27:07;16.80;99.90
24049;DHT22;12250;50.956;4.746;2022-07-06T06:29:33;17.10;99.90
24049;DHT22;12250;50.956;4.746;2022-07-06T06:31:58;17.50;99.90
24049;DHT22;12250;50.956;4.746;2022-07-06T06:34:24;17.80;99.90
24049;DHT22;12250;50.956;4.746;2022-07-06T06:36:50;18.00;99.90
24049;DHT22;12250;50.956;4.746;2022-07-06T06:39:15;18.10;99.90
24049;DHT22;12250;50.956;4.746;2022-07-06T06:41:41;18.30;99.90
24049;DHT22;12250;50.956;4.746;2022-07-06T06:44:08;18.30;99.90
24049;DHT22;12250;50.956;4.746;2022-07-06T06:46:34;18.30;99.90
24049;DHT22;12250;50.956;4.746;2022-07-06T06:48:59;18.30;99.90
24049;DHT22;12250;50.956;4.746;2022-07-06T06:51:25;18.50;99.90
24049;DHT22;12250;50.956;4.746;2022-07-06T06:53:51;18.80;99.90
24049;DHT22;12250;50.956;4.746;2022-07-06T06:56:16;18.90;99.90
24049;DHT22;12250;50.956;4.746;2022-07-06T06:58:43;18.90;99.90
24049;DHT22;12250;50.956;4.746;2022-07-06T07:01:08;19.00;99.90
24049;DHT22;12250;50.956;4.746;2022-07-06T07:03:35;19.00;99.90
24049;DHT22;12250;50.956;4.746;2022-07-06T07:06:00;19.00;99.90
24049;DHT22;12250;50.956;4.746;2022-07-06T07:08:26;19.00;99.90
24049;DHT22;12250;50.956;4.746;2022-07-06T07:10:52;19.00;99.90
24049;DHT22;12250;50.956;4.746;2022-07-06T07:13:18;19.10;99.90
24049;DHT22;12250;50.956;4.746;2022-07-06T07:15:43;19.20;99.90
24049;DHT22;12250;50.956;4.746;2022-07-06T07:18:09;19.20;99.90
24049;DHT22;12250;50.956;4.746;2022-07-06T07:20:35;19.30;99.90
24049;DHT22;12250;50.956;4.746;2022-07-06T07:23:00;19.40;99.90
24049;DHT22;12250;50.956;4.746;2022-07-06T07:25:27;19.50;99.90
24049;DHT22;12250;50.956;4.746;2022-07-06T07:27:53;19.70;99.90
24049;DHT22;12250;50.956;4.746;2022-07-06T07:30:19;20.00;99.90
24049;DHT22;12250;50.956;4.746;2022-07-06T07:32:45;20.40;99.90
24049;DHT22;12250;50.956;4.746;2022-07-06T07:35:11;20.80;99.90
24049;DHT22;12250;50.956;4.746;2022-07-06T07:37:36;21.10;99.90
24049;DHT22;12250;50.956;4.746;2022-07-06T07:40:03;21.50;98.20
24049;DHT22;12250;50.956;4.746;2022-07-06T07:42:30;21.60;98.50
24049;DHT22;12250;50.956;4.746;2022-07-06T07:44:55;21.70;95.80
24049;DHT22;12250;50.956;4.746;2022-07-06T07:47:21;21.60;94.00
24049;DHT22;12250;50.956;4.746;2022-07-06T07:49:47;21.40;93.60
24049;DHT22;12250;50.956;4.746;2022-07-06T07:52:12;21.40;94.20
24049;DHT22;12250;50.956;4.746;2022-07-06T07:54:38;21.30;92.90
24049;DHT22;12250;50.956;4.746;2022-07-06T07:57:04;21.30;93.70
24049;DHT22;12250;50.956;4.746;2022-07-06T07:59:30;21.30;94.80
24049;DHT22;12250;50.956;4.746;2022-07-06T08:01:56;21.40;94.50
24049;DHT22;12250;50.956;4.746;2022-07-06T08:04:21;21.30;92.90
24049;DHT22;12250;50.956;4.746;2022-07-06T08:06:47;21.40;92.60
24049;DHT22;12250;50.956;4.746;2022-07-06T08:09:13;21.40;91.30
24049;DHT22;12250;50.956;4.746;2022-07-06T08:11:39;21.60;90.70
24049;DHT22;12250;50.956;4.746;2022-07-06T08:14:05;21.90;92.30
24049;DHT22;12250;50.956;4.746;2022-07-06T08:16:31;23.20;87.80
24049;DHT22;12250;50.956;4.746;2022-07-06T08:18:57;24.30;84.10
24049;DHT22;12250;50.956;4.746;2022-07-06T08:21:23;25.60;75.90
24049;DHT22;12250;50.956;4.746;2022-07-06T08:23:49;27.70;66.00
24049;DHT22;12250;50.956;4.746;2022-07-06T08:26:14;30.30;54.80
24049;DHT22;12250;50.956;4.746;2022-07-06T08:28:40;32.00;46.80
24049;DHT22;12250;50.956;4.746;2022-07-06T08:31:06;32.40;44.90
24049;DHT22;12250;50.956;4.746;2022-07-06T08:33:32;33.00;44.60
24049;DHT22;12250;50.956;4.746;2022-07-06T08:35:57;34.50;40.90
24049;DHT22;12250;50.956;4.746;2022-07-06T08:38:23;35.90;38.60
24049;DHT22;12250;50.956;4.746;2022-07-06T08:40:49;36.30;36.10
24049;DHT22;12250;50.956;4.746;2022-07-06T08:43:17;36.40;35.50
24049;DHT22;12250;50.956;4.746;2022-07-06T08:45:44;36.10;33.70
24049;DHT22;12250;50.956;4.746;2022-07-06T08:48:11;36.00;34.50
24049;DHT22;12250;50.956;4.746;2022-07-06T08:50:38;35.30;34.90
24049;DHT22;12250;50.956;4.746;2022-07-06T08:53:04;34.90;35.40
24049;DHT22;12250;50.956;4.746;2022-07-06T08:55:30;34.80;35.30
24049;DHT22;12250;50.956;4.746;2022-07-06T08:57:57;35.50;34.00
24049;DHT22;12250;50.956;4.746;2022-07-06T09:00:26;36.50;32.70
24049;DHT22;12250;50.956;4.746;2022-07-06T09:02:51;37.20;32.30
24049;DHT22;12250;50.956;4.746;2022-07-06T09:05:22;37.60;31.60
24049;DHT22;12250;50.956;4.746;2022-07-06T09:07:52;36.80;31.00
24049;DHT22;12250;50.956;4.746;2022-07-06T09:10:20;35.50;32.00
24049;DHT22;12250;50.956;4.746;2022-07-06T09:12:47;34.60;34.60
24049;DHT22;12250;50.956;4.746;2022-07-06T09:15:13;33.80;36.20
24049;DHT22;12250;50.956;4.746;2022-07-06T09:17:41;32.80;38.10
24049;DHT22;12250;50.956;4.746;2022-07-06T09:20:09;32.80;38.10
24049;DHT22;12250;50.956;4.746;2022-07-06T09:22:35;33.00;36.60
24049;DHT22;12250;50.956;4.746;2022-07-06T09:25:08;32.50;36.70
24049;DHT22;12250;50.956;4.746;2022-07-06T09:27:45;31.80;38.90
24049;DHT22;12250;50.956;4.746;2022-07-06T09:30:13;30.50;40.50
24049;DHT22;12250;50.956;4.746;2022-07-06T09:32:41;29.40;41.40
24049;DHT22;12250;50.956;4.746;2022-07-06T09:35:07;28.10;43.90
24049;DHT22;12250;50.956;4.746;2022-07-06T09:37:33;27.20;45.70
24049;DHT22;12250;50.956;4.746;2022-07-06T09:39:59;26.70;46.30
24049;DHT22;12250;50.956;4.746;2022-07-06T09:42:26;26.30;47.30
24049;DHT22;12250;50.956;4.746;2022-07-06T09:44:53;26.30;48.90
24049;DHT22;12250;50.956;4.746;2022-07-06T09:47:19;26.50;49.60
24049;DHT22;12250;50.956;4.746;2022-07-06T09:49:46;26.90;49.60
24049;DHT22;12250;50.956;4.746;2022-07-06T09:52:13;27.20;47.40
24049;DHT22;12250;50.956;4.746;2022-07-06T09:54:40;27.50;45.90
24049;DHT22;12250;50.956;4.746;2022-07-06T09:57:07;27.50;46.00
24049;DHT22;12250;50.956;4.746;2022-07-06T09:59:34;27.00;45.70
24049;DHT22;12250;50.956;4.746;2022-07-06T10:02:06;26.60;46.50
24049;DHT22;12250;50.956;4.746;2022-07-06T10:04:32;26.20;47.50
24049;DHT22;12250;50.956;4.746;2022-07-06T10:06:59;26.00;48.70
24049;DHT22;12250;50.956;4.746;2022-07-06T10:09:27;26.00;48.10
24049;DHT22;12250;50.956;4.746;2022-07-06T10:11:58;26.10;48.30
24049;DHT22;12250;50.956;4.746;2022-07-06T10:14:33;26.40;47.50
24049;DHT22;12250;50.956;4.746;2022-07-06T10:17:01;27.60;48.10
24049;DHT22;12250;50.956;4.746;2022-07-06T10:19:29;29.50;43.20
24049;DHT22;12250;50.956;4.746;2022-07-06T10:21:59;31.40;41.70
24049;DHT22;12250;50.956;4.746;2022-07-06T10:24:26;32.80;39.10
24049;DHT22;12250;50.956;4.746;2022-07-06T10:26:52;33.70;36.80
24049;DHT22;12250;50.956;4.746;2022-07-06T10:29:18;33.50;36.50
24049;DHT22;12250;50.956;4.746;2022-07-06T10:31:46;32.80;39.10
24049;DHT22;12250;50.956;4.746;2022-07-06T10:34:14;32.50;40.30
24049;DHT22;12250;50.956;4.746;2022-07-06T10:36:42;32.90;38.70
24049;DHT22;12250;50.956;4.746;2022-07-06T10:39:09;33.20;37.70
24049;DHT22;12250;50.956;4.746;2022-07-06T10:41:53;32.80;36.10
24049;DHT22;12250;50.956;4.746;2022-07-06T10:44:24;32.10;37.70
24049;DHT22;12250;50.956;4.746;2022-07-06T10:46:55;31.80;40.60
24049;DHT22;12250;50.956;4.746;2022-07-06T10:49:22;31.60;39.90
24049;DHT22;12250;50.956;4.746;2022-07-06T10:51:48;31.20;39.30
24049;DHT22;12250;50.956;4.746;2022-07-06T10:54:15;30.70;41.50
24049;DHT22;12250;50.956;4.746;2022-07-06T10:56:47;30.30;40.60
24049;DHT22;12250;50.956;4.746;2022-07-06T10:59:20;30.40;41.30
24049;DHT22;12250;50.956;4.746;2022-07-06T11:02:12;30.70;39.30
24049;DHT22;12250;50.956;4.746;2022-07-06T11:04:40;31.10;39.90
24049;DHT22;12250;50.956;4.746;2022-07-06T11:09:36;31.20;39.50
24049;DHT22;12250;50.956;4.746;2022-07-06T11:12:15;30.90;39.30
24049;DHT22;12250;50.956;4.746;2022-07-06T11:14:42;30.70;39.70
24049;DHT22;12250;50.956;4.746;2022-07-06T11:17:10;30.80;41.30
24049;DHT22;12250;50.956;4.746;2022-07-06T11:19:36;30.90;40.30
24049;DHT22;12250;50.956;4.746;2022-07-06T11:22:09;31.00;41.60
24049;DHT22;12250;50.956;4.746;2022-07-06T11:24:40;30.60;39.90
24049;DHT22;12250;50.956;4.746;2022-07-06T11:27:06;30.00;39.60
24049;DHT22;12250;50.956;4.746;2022-07-06T11:29:33;29.80;39.70
24049;DHT22;12250;50.956;4.746;2022-07-06T11:32:05;30.30;41.10
24049;DHT22;12250;50.956;4.746;2022-07-06T11:34:36;31.40;40.30
24049;DHT22;12250;50.956;4.746;2022-07-06T11:37:08;33.00;36.50
24049;DHT22;12250;50.956;4.746;2022-07-06T11:39:36;34.10;35.80
24049;DHT22;12250;50.956;4.746;2022-07-06T11:42:03;35.10;34.80
24049;DHT22;12250;50.956;4.746;2022-07-06T11:44:30;35.30;32.90
24049;DHT22;12250;50.956;4.746;2022-07-06T11:46:57;34.80;33.90
24049;DHT22;12250;50.956;4.746;2022-07-06T11:49:25;34.80;35.00
24049;DHT22;12250;50.956;4.746;2022-07-06T11:51:51;34.30;34.00
24049;DHT22;12250;50.956;4.746;2022-07-06T11:54:19;33.20;37.80
24049;DHT22;12250;50.956;4.746;2022-07-06T11:57:00;32.50;36.60
24049;DHT22;12250;50.956;4.746;2022-07-06T11:59:31;32.00;38.20
24049;DHT22;12250;50.956;4.746;2022-07-06T12:02:08;32.00;38.10
24049;DHT22;12250;50.956;4.746;2022-07-06T12:04:36;31.70;38.20
24049;DHT22;12250;50.956;4.746;2022-07-06T12:07:07;31.50;37.50
24049;DHT22;12250;50.956;4.746;2022-07-06T12:09:35;31.00;38.80
24049;DHT22;12250;50.956;4.746;2022-07-06T12:12:01;30.60;41.00
24049;DHT22;12250;50.956;4.746;2022-07-06T12:14:29;30.40;42.10
24049;DHT22;12250;50.956;4.746;2022-07-06T12:16:55;30.10;42.50
24049;DHT22;12250;50.956;4.746;2022-07-06T12:19:23;29.90;41.80
24049;DHT22;12250;50.956;4.746;2022-07-06T12:21:50;29.60;42.80
24049;DHT22;12250;50.956;4.746;2022-07-06T12:24:24;28.90;42.90
24049;DHT22;12250;50.956;4.746;2022-07-06T12:26:51;28.70;43.50
24049;DHT22;12250;50.956;4.746;2022-07-06T12:29:18;28.50;43.40
24049;DHT22;12250;50.956;4.746;2022-07-06T12:34:19;28.20;45.60
24049;DHT22;12250;50.956;4.746;2022-07-06T12:36:55;28.20;44.30
24049;DHT22;12250;50.956;4.746;2022-07-06T12:39:24;28.00;44.90
24049;DHT22;12250;50.956;4.746;2022-07-06T12:41:55;27.70;45.20
24049;DHT22;12250;50.956;4.746;2022-07-06T12:44:24;27.60;46.30
24049;DHT22;12250;50.956;4.746;2022-07-06T12:47:01;27.50;46.70
24049;DHT22;12250;50.956;4.746;2022-07-06T12:49:28;27.40;46.10
24049;DHT22;12250;50.956;4.746;2022-07-06T12:52:07;27.50;46.60
24049;DHT22;12250;50.956;4.746;2022-07-06T12:54:47;27.40;47.30
24049;DHT22;12250;50.956;4.746;2022-07-06T12:59:46;27.30;46.70
24049;DHT22;12250;50.956;4.746;2022-07-06T13:02:24;27.20;46.80
24049;DHT22;12250;50.956;4.746;2022-07-06T13:07:27;27.10;46.60
24049;DHT22;12250;50.956;4.746;2022-07-06T13:09:54;27.60;46.80
24049;DHT22;12250;50.956;4.746;2022-07-06T13:12:20;27.80;46.70
24049;DHT22;12250;50.956;4.746;2022-07-06T13:14:46;27.80;46.60
24049;DHT22;12250;50.956;4.746;2022-07-06T13:17:13;27.50;46.80
24049;DHT22;12250;50.956;4.746;2022-07-06T13:19:39;27.50;47.20
24049;DHT22;12250;50.956;4.746;2022-07-06T13:22:04;27.70;47.10
24049;DHT22;12250;50.956;4.746;2022-07-06T13:24:30;27.60;48.40
24049;DHT22;12250;50.956;4.746;2022-07-06T13:26:56;27.70;49.70
24049;DHT22;12250;50.956;4.746;2022-07-06T13:29:22;27.60;46.40
24049;DHT22;12250;50.956;4.746;2022-07-06T13:31:48;27.70;48.00
24049;DHT22;12250;50.956;4.746;2022-07-06T13:34:14;27.90;47.20
24049;DHT22;12250;50.956;4.746;2022-07-06T13:36:40;27.80;47.60
24049;DHT22;12250;50.956;4.746;2022-07-06T13:39:06;27.80;47.90
24049;DHT22;12250;50.956;4.746;2022-07-06T13:41:32;27.60;48.60
24049;DHT22;12250;50.956;4.746;2022-07-06T13:43:58;27.20;48.50
24049;DHT22;12250;50.956;4.746;2022-07-06T13:46:26;26.90;50.30
24049;DHT22;12250;50.956;4.746;2022-07-06T13:48:52;26.90;48.20
24049;DHT22;12250;50.956;4.746;2022-07-06T13:51:18;27.00;49.50
24049;DHT22;12250;50.956;4.746;2022-07-06T13:53:44;27.40;49.00
24049;DHT22;12250;50.956;4.746;2022-07-06T13:56:11;27.40;48.50
24049;DHT22;12250;50.956;4.746;2022-07-06T13:58:36;27.10;49.10
24049;DHT22;12250;50.956;4.746;2022-07-06T14:01:03;26.80;48.50
24049;DHT22;12250;50.956;4.746;2022-07-06T14:03:30;26.80;51.30
24049;DHT22;12250;50.956;4.746;2022-07-06T14:05:57;26.80;49.40
24049;DHT22;12250;50.956;4.746;2022-07-06T14:08:23;26.80;50.10
24049;DHT22;12250;50.956;4.746;2022-07-06T14:10:48;27.20;51.10
24049;DHT22;12250;50.956;4.746;2022-07-06T14:13:14;27.60;51.10
24049;DHT22;12250;50.956;4.746;2022-07-06T14:15:40;27.80;50.00
24049;DHT22;12250;50.956;4.746;2022-07-06T14:18:05;28.20;51.30
24049;DHT22;12250;50.956;4.746;2022-07-06T14:20:31;28.40;48.50
24049;DHT22;12250;50.956;4.746;2022-07-06T14:22:57;28.30;48.20
24049;DHT22;12250;50.956;4.746;2022-07-06T14:25:22;27.80;48.90
24049;DHT22;12250;50.956;4.746;2022-07-06T14:27:48;27.10;49.70
24049;DHT22;12250;50.956;4.746;2022-07-06T14:30:14;26.70;52.00
24049;DHT22;12250;50.956;4.746;2022-07-06T14:32:39;26.70;50.60
24049;DHT22;12250;50.956;4.746;2022-07-06T14:35:05;26.40;52.30
24049;DHT22;12250;50.956;4.746;2022-07-06T14:37:31;26.50;52.40
24049;DHT22;12250;50.956;4.746;2022-07-06T14:39:56;26.70;52.30
24049;DHT22;12250;50.956;4.746;2022-07-06T14:42:22;26.80;52.50
24049;DHT22;12250;50.956;4.746;2022-07-06T14:44:48;26.40;52.70
24049;DHT22;12250;50.956;4.746;2022-07-06T14:47:14;26.40;52.20
24049;DHT22;12250;50.956;4.746;2022-07-06T14:49:40;26.50;52.30
24049;DHT22;12250;50.956;4.746;2022-07-06T14:52:06;26.60;53.50
24049;DHT22;12250;50.956;4.746;2022-07-06T14:54:34;26.70;53.00
24049;DHT22;12250;50.956;4.746;2022-07-06T14:57:00;26.70;52.80
24049;DHT22;12250;50.956;4.746;2022-07-06T14:59:25;26.50;51.80
24049;DHT22;12250;50.956;4.746;2022-07-06T15:01:51;26.40;52.20
24049;DHT22;12250;50.956;4.746;2022-07-06T15:04:17;26.40;52.60
24049;DHT22;12250;50.956;4.746;2022-07-06T15:06:43;26.90;55.20
24049;DHT22;12250;50.956;4.746;2022-07-06T15:09:08;27.30;52.90
24049;DHT22;12250;50.956;4.746;2022-07-06T15:11:34;27.30;51.80
24049;DHT22;12250;50.956;4.746;2022-07-06T15:14:00;26.90;52.10
24049;DHT22;12250;50.956;4.746;2022-07-06T15:16:25;26.60;53.00
24049;DHT22;12250;50.956;4.746;2022-07-06T15:18:52;26.30;52.50
24049;DHT22;12250;50.956;4.746;2022-07-06T15:21:17;26.10;52.60
24049;DHT22;12250;50.956;4.746;2022-07-06T15:23:43;26.20;53.30
24049;DHT22;12250;50.956;4.746;2022-07-06T15:26:09;26.10;53.30
24049;DHT22;12250;50.956;4.746;2022-07-06T15:28:36;26.10;53.10
24049;DHT22;12250;50.956;4.746;2022-07-06T15:31:01;26.10;54.10
24049;DHT22;12250;50.956;4.746;2022-07-06T15:33:27;26.20;53.50
24049;DHT22;12250;50.956;4.746;2022-07-06T15:35:53;25.90;53.40
24049;DHT22;12250;50.956;4.746;2022-07-06T15:38:18;25.80;54.50